Dorchester, New Jersey
Current Conditions -  °F | °C
As of 5:54 PM on Wednesday 22 Oct 2014 (Local Time) from KMIV Reporting Station
Overcast Overcast  
Wind Chill: 54°   Ceiling: 1800
Heat Index: 54°   Visibility: 10mi
Dew Point: 50°   Wind: 16mph
Humidity: 86%   Direction: 340°NNW
Pressure: 29.81"   Gusts: 24mph
Location:  39.27°N, 74.98°W
Report Text: KMIV 222154Z AUTO 34014G21KT 10SM OVC018 12/10 A2981 RMK AO2 RAE36 SLP092 T01220100 PNO $
Loading
Personal Weather Stations






























Interactive Weather Map
Tropical Storm Tracking
New forecast layout! Learn more

10-Day Weather Forecast

Advertisements
Track Severe Weather on mobile